Time;durP1;ratioP1;P1;durP2;ratioP2;P2;SDS_P1;SDS_P2;PMS_P1;PMS_P2;Temp;Humidity;BMP_temperature;BMP_pressure;BME280_temperature;BME280_humidity;BME280_pressure;Samples;Min_cycle;Max_cycle;Signal;HPM_P1;HPM_P2
2023/04/05 00:01:01;;;;;;;1.50;1.05;;;0.90;70.60;;;;;;5059523;28;20219;-68
2023/04/05 00:03:27;;;;;;;1.48;1.05;;;1.00;71.90;;;;;;5060033;28;20203;-68
2023/04/05 00:05:54;;;;;;;2.60;2.10;;;1.10;72.50;;;;;;5065419;28;20245;-68
2023/04/05 00:08:25;;;;;;;1.33;0.95;;;1.00;72.60;;;;;;5063696;28;20221;-68
2023/04/05 00:10:52;;;;;;;2.28;2.17;;;1.00;73.20;;;;;;5063838;28;20269;-68
2023/04/05 00:13:19;;;;;;;3.22;2.08;;;1.00;74.00;;;;;;5065166;28;20195;-68
2023/04/05 00:15:47;;;;;;;3.72;3.42;;;1.10;72.80;;;;;;5064876;28;20234;-67
2023/04/05 00:18:22;;;;;;;1.73;1.63;;;1.20;72.20;;;;;;5055175;28;20199;-68
2023/04/05 00:20:49;;;;;;;1.40;1.30;;;1.10;72.50;;;;;;5057348;28;20261;-68
2023/04/05 00:23:16;;;;;;;1.42;1.25;;;1.20;72.80;;;;;;5063245;28;20207;-67
2023/04/05 00:25:43;;;;;;;1.40;1.30;;;1.20;72.60;;;;;;5064732;28;20319;-68
2023/04/05 00:28:10;;;;;;;1.85;1.20;;;1.30;72.30;;;;;;5065071;28;20195;-68
2023/04/05 00:30:37;;;;;;;2.08;1.90;;;1.30;71.20;;;;;;5065226;28;20704;-68
2023/04/05 00:33:04;;;;;;;1.95;1.33;;;1.20;72.10;;;;;;5065247;28;20203;-67
2023/04/05 00:35:32;;;;;;;1.45;1.17;;;1.30;72.30;;;;;;5065619;28;20225;-67
2023/04/05 00:37:59;;;;;;;1.30;1.25;;;1.30;72.90;;;;;;5065441;28;20203;-68
2023/04/05 00:40:26;;;;;;;1.85;1.05;;;1.20;72.80;;;;;;5064174;28;20223;-68
2023/04/05 00:42:53;;;;;;;2.90;1.95;;;1.30;72.50;;;;;;5065010;28;20206;-67
2023/04/05 00:45:20;;;;;;;1.23;1.23;;;1.20;71.20;;;;;;5065625;28;20225;-67
2023/04/05 00:47:46;;;;;;;3.17;1.70;;;1.20;71.60;;;;;;5065415;28;20206;-68
2023/04/05 00:50:14;;;;;;;6.07;1.98;;;1.20;71.40;;;;;;5064588;28;20205;-69
2023/04/05 00:52:43;;;;;;;2.30;1.65;;;1.20;72.10;;;;;;5068675;28;20195;-67
2023/04/05 00:55:11;;;;;;;2.25;1.25;;;1.20;72.20;;;;;;5068788;28;20204;-67
2023/04/05 00:57:38;;;;;;;2.35;2.15;;;1.20;72.30;;;;;;5069020;28;20230;-67
2023/04/05 01:00:08;;;;;;;1.27;1.20;;;1.20;73.00;;;;;;5067353;28;20257;-67
2023/04/05 01:02:38;;;;;;;1.90;1.33;;;1.10;73.00;;;;;;5058259;28;20286;-68
2023/04/05 01:05:21;;;;;;;0.70;0.70;;;1.10;73.60;;;;;;5066675;28;20231;-67
2023/04/05 01:07:54;;;;;;;1.30;1.20;;;1.20;73.20;;;;;;5069200;28;20198;-67
2023/04/05 01:10:23;;;;;;;1.35;1.25;;;1.10;73.00;;;;;;5067478;28;20287;-67
2023/04/05 01:12:50;;;;;;;2.08;1.98;;;1.10;74.00;;;;;;5069104;28;20187;-68
2023/04/05 01:15:18;;;;;;;1.58;1.52;;;1.10;73.40;;;;;;5068199;28;20199;-68
2023/04/05 01:17:47;;;;;;;1.10;1.10;;;1.10;73.20;;;;;;5063696;28;20200;-68
2023/04/05 01:20:14;;;;;;;2.35;2.15;;;1.00;73.90;;;;;;5067421;28;20191;-68
2023/04/05 01:23:13;;;;;;;0.95;0.95;;;1.00;73.80;;;;;;5068346;28;20552;-67
2023/04/05 01:26:04;;;;;;;1.35;1.25;;;0.90;74.50;;;;;;5067819;28;20235;-67
2023/04/05 01:28:49;;;;;;;2.78;2.53;;;0.90;74.50;;;;;;5061437;28;20207;-67
2023/04/05 01:31:23;;;;;;;1.88;0.95;;;0.80;74.80;;;;;;5068590;28;20211;-68
2023/04/05 01:33:56;;;;;;;1.60;1.50;;;0.80;75.40;;;;;;5067974;28;20203;-68
2023/04/05 01:36:30;;;;;;;1.45;1.33;;;0.70;75.90;;;;;;5068608;28;20231;-68
2023/04/05 01:39:00;;;;;;;1.45;1.33;;;0.70;76.70;;;;;;5067308;28;20668;-67
2023/04/05 01:41:27;;;;;;;1.42;1.10;;;0.70;76.10;;;;;;5067905;28;20277;-68
2023/04/05 01:43:56;;;;;;;2.90;1.67;;;0.70;76.30;;;;;;5068307;28;20626;-68
2023/04/05 01:46:25;;;;;;;0.75;0.75;;;0.70;76.90;;;;;;5082079;28;20227;-67
2023/04/05 01:48:53;;;;;;;2.58;1.38;;;0.60;77.10;;;;;;5067610;28;20231;-67
2023/04/05 01:51:21;;;;;;;1.20;1.17;;;0.60;77.80;;;;;;5068099;28;20284;-68
2023/04/05 01:53:48;;;;;;;1.67;0.82;;;0.60;77.90;;;;;;5068168;28;20204;-67
2023/04/05 01:56:16;;;;;;;0.60;0.60;;;0.50;77.90;;;;;;5067814;28;20301;-67
2023/04/05 01:58:43;;;;;;;2.80;1.77;;;0.50;77.50;;;;;;5066713;28;20214;-67
2023/04/05 02:01:11;;;;;;;1.70;1.58;;;0.60;78.10;;;;;;5066823;28;20211;-68
2023/04/05 02:03:40;;;;;;;1.58;1.48;;;0.60;76.80;;;;;;5067893;28;20211;-67
2023/04/05 02:06:07;;;;;;;1.00;0.98;;;0.50;77.80;;;;;;5068097;28;20235;-67
2023/04/05 02:08:35;;;;;;;2.25;1.35;;;0.60;78.00;;;;;;5066238;28;20202;-67
2023/04/05 02:11:02;;;;;;;2.17;0.75;;;0.50;79.10;;;;;;5067564;28;20216;-67
2023/04/05 02:13:29;;;;;;;2.42;1.88;;;0.60;77.50;;;;;;5067345;28;20198;-68
2023/04/05 02:15:56;;;;;;;0.68;0.50;;;0.60;77.20;;;;;;5067637;28;20902;-67
2023/04/05 02:18:29;;;;;;;1.10;1.10;;;0.60;77.90;;;;;;5063000;28;20206;-67
2023/04/05 02:21:03;;;;;;;1.45;1.38;;;0.60;78.40;;;;;;5068064;28;20967;-67
2023/04/05 02:23:31;;;;;;;1.83;1.73;;;0.50;77.40;;;;;;5067493;28;20207;-67
2023/04/05 02:26:00;;;;;;;1.73;1.58;;;0.50;77.10;;;;;;5066262;28;20671;-67
2023/04/05 02:28:29;;;;;;;1.52;1.42;;;0.50;77.90;;;;;;5066282;28;20298;-67
2023/04/05 02:30:56;;;;;;;4.57;1.75;;;0.50;77.60;;;;;;5067095;28;20711;-67
2023/04/05 02:33:24;;;;;;;2.85;1.63;;;0.50;76.80;;;;;;5067716;28;20610;-67
2023/04/05 02:35:53;;;;;;;4.03;1.63;;;0.50;76.70;;;;;;5067437;28;20218;-68
2023/04/05 02:38:22;;;;;;;2.38;1.40;;;0.50;77.50;;;;;;5065959;28;20202;-68
2023/04/05 02:40:50;;;;;;;1.25;1.20;;;0.50;78.30;;;;;;5065101;28;20219;-68
2023/04/05 02:43:17;;;;;;;2.45;2.35;;;0.50;78.10;;;;;;5067182;28;20876;-67
2023/04/05 02:45:45;;;;;;;1.60;1.55;;;0.50;78.60;;;;;;5067345;28;20238;-67
2023/04/05 02:48:12;;;;;;;1.77;1.67;;;0.40;78.50;;;;;;5065786;28;20199;-67
2023/04/05 02:50:40;;;;;;;1.30;0.73;;;0.40;79.40;;;;;;5067102;28;20652;-68
2023/04/05 02:53:06;;;;;;;1.10;0.88;;;0.40;78.70;;;;;;5066702;28;20187;-69
2023/04/05 02:55:36;;;;;;;3.25;2.40;;;0.40;78.40;;;;;;5066465;28;20227;-68
2023/04/05 02:58:04;;;;;;;2.97;1.80;;;0.40;78.20;;;;;;5065799;28;20199;-67
2023/04/05 03:00:32;;;;;;;1.10;1.10;;;0.40;77.30;;;;;;5066573;28;20219;-68
2023/04/05 03:03:00;;;;;;;2.05;1.95;;;0.40;76.90;;;;;;5066616;28;20198;-67
2023/04/05 03:05:28;;;;;;;1.92;1.33;;;0.30;77.30;;;;;;5066699;28;20958;-67
2023/04/05 03:07:58;;;;;;;2.17;1.45;;;0.20;79.40;;;;;;5066186;28;20283;-68
2023/04/05 03:10:28;;;;;;;1.52;1.15;;;0.20;79.50;;;;;;5066200;28;20986;-67
2023/04/05 03:12:57;;;;;;;3.80;2.00;;;0.20;79.50;;;;;;5066060;28;20199;-67
2023/04/05 03:15:26;;;;;;;0.88;0.88;;;0.30;79.80;;;;;;5066502;28;20219;-68
2023/04/05 03:17:53;;;;;;;0.88;0.85;;;0.30;79.40;;;;;;5065900;28;20198;-67
2023/04/05 03:20:20;;;;;;;3.20;2.88;;;0.30;79.00;;;;;;5065392;28;20195;-68
2023/04/05 03:22:47;;;;;;;1.58;1.58;;;0.20;80.10;;;;;;5065205;28;20288;-68
2023/04/05 03:25:15;;;;;;;1.40;1.40;;;0.20;79.50;;;;;;5065359;28;20195;-67
2023/04/05 03:27:41;;;;;;;0.93;0.88;;;0.10;79.20;;;;;;5064650;28;20198;-67
2023/04/05 03:30:10;;;;;;;2.05;1.45;;;0.00;78.50;;;;;;5065281;28;20199;-68
2023/04/05 03:32:37;;;;;;;1.17;1.13;;;0.00;78.60;;;;;;5066554;28;20293;-67
2023/04/05 03:35:05;;;;;;;1.60;1.00;;;0.10;78.90;;;;;;5066190;28;20241;-67
2023/04/05 03:37:32;;;;;;;1.92;1.83;;;0.00;78.80;;;;;;5065346;28;20314;-68
2023/04/05 03:39:59;;;;;;;0.75;0.75;;;0.00;78.60;;;;;;5048517;28;20564;-68
2023/04/05 03:42:25;;;;;;;0.47;0.47;;;0.00;79.00;;;;;;5065531;28;20222;-68
2023/04/05 03:44:53;;;;;;;1.45;1.35;;;0.00;79.20;;;;;;5066574;28;20754;-67
2023/04/05 03:47:21;;;;;;;1.00;0.98;;;0.00;78.40;;;;;;5065436;28;20235;-67
2023/04/05 03:49:48;;;;;;;1.20;0.90;;;-0.10;79.30;;;;;;5064852;28;20192;-67
2023/04/05 03:52:15;;;;;;;1.67;1.42;;;-0.10;78.90;;;;;;5066065;28;20222;-67
2023/04/05 03:54:41;;;;;;;1.15;1.15;;;-0.10;78.80;;;;;;5066228;28;20195;-68
2023/04/05 03:57:08;;;;;;;2.00;1.65;;;-0.20;80.10;;;;;;5065875;28;20230;-68
2023/04/05 03:59:35;;;;;;;1.77;1.67;;;-0.20;80.00;;;;;;5064369;28;20214;-67
2023/04/05 04:02:02;;;;;;;0.50;0.50;;;-0.20;79.90;;;;;;5050934;28;20219;-67
2023/04/05 04:04:30;;;;;;;3.92;3.63;;;-0.20;81.10;;;;;;5065245;28;20203;-67
2023/04/05 04:06:57;;;;;;;1.50;1.40;;;-0.30;80.90;;;;;;5066596;28;20234;-67
2023/04/05 04:09:24;;;;;;;0.88;0.80;;;-0.30;81.30;;;;;;5065079;28;20759;-67
2023/04/05 04:11:51;;;;;;;6.30;4.20;;;-0.40;81.20;;;;;;5064379;28;21590;-68
2023/04/05 04:14:18;;;;;;;7.07;4.15;;;-0.30;80.90;;;;;;5064622;28;20210;-67
2023/04/05 04:16:44;;;;;;;3.05;1.90;;;-0.30;80.50;;;;;;5061129;28;20215;-67
2023/04/05 04:19:11;;;;;;;1.17;1.15;;;-0.40;80.50;;;;;;5061035;28;20281;-67
2023/04/05 04:21:39;;;;;;;2.30;2.13;;;-0.40;80.30;;;;;;5065740;28;20223;-67
2023/04/05 04:24:06;;;;;;;1.02;0.93;;;-0.40;81.80;;;;;;5066179;28;20199;-67
2023/04/05 04:26:36;;;;;;;1.30;1.30;;;-0.40;83.50;;;;;;5068432;28;20272;-67
2023/04/05 04:29:05;;;;;;;0.82;0.82;;;-0.50;84.20;;;;;;5068318;28;20282;-67
2023/04/05 04:31:33;;;;;;;1.88;1.35;;;-0.40;83.10;;;;;;5070475;28;20225;-67
2023/04/05 04:34:01;;;;;;;1.70;1.60;;;-0.40;81.80;;;;;;5070142;28;20809;-68
2023/04/05 04:36:33;;;;;;;1.90;1.45;;;-0.40;81.30;;;;;;5070522;28;20918;-67
2023/04/05 04:39:04;;;;;;;0.55;0.55;;;-0.50;82.10;;;;;;5068635;28;20235;-68
2023/04/05 04:41:32;;;;;;;1.55;0.95;;;-0.50;82.20;;;;;;5069339;28;20222;-67
2023/04/05 04:44:01;;;;;;;1.00;0.93;;;-0.50;81.70;;;;;;5069859;28;20191;-69
2023/04/05 04:46:29;;;;;;;1.67;1.58;;;-0.50;81.50;;;;;;5070101;28;20231;-67
2023/04/05 04:48:57;;;;;;;0.65;0.65;;;-0.50;82.80;;;;;;5068200;28;20270;-67
2023/04/05 04:51:23;;;;;;;1.27;1.23;;;-0.50;82.60;;;;;;5069106;28;20276;-67
2023/04/05 04:53:50;;;;;;;2.88;1.42;;;-0.60;82.70;;;;;;5069733;28;20223;-67
2023/04/05 04:56:18;;;;;;;1.00;0.95;;;-0.60;82.50;;;;;;5069342;28;20229;-67
2023/04/05 04:58:45;;;;;;;7.93;4.13;;;-0.70;82.60;;;;;;5066856;28;20743;-68
2023/04/05 05:01:12;;;;;;;4.18;2.88;;;-0.70;82.80;;;;;;5069205;28;20233;-67
2023/04/05 05:03:38;;;;;;;1.52;1.42;;;-0.70;82.70;;;;;;5069622;28;20221;-67
2023/04/05 05:06:06;;;;;;;1.52;1.05;;;-0.70;82.70;;;;;;5069841;28;20276;-67
2023/04/05 05:08:33;;;;;;;1.80;1.70;;;-0.70;84.40;;;;;;5068058;28;20529;-67
2023/04/05 05:11:00;;;;;;;1.20;1.10;;;-0.70;85.20;;;;;;5068824;28;20215;-67
2023/04/05 05:13:28;;;;;;;3.70;0.80;;;-0.70;85.80;;;;;;5068661;28;20213;-67
2023/04/05 05:15:56;;;;;;;1.98;1.88;;;-0.70;85.90;;;;;;5062287;28;20230;-67
2023/04/05 05:18:23;;;;;;;0.60;0.60;;;-0.70;86.10;;;;;;5060730;28;20200;-67
2023/04/05 05:20:51;;;;;;;1.85;1.27;;;-0.80;86.90;;;;;;5068147;28;20230;-66
2023/04/05 05:23:19;;;;;;;1.60;1.42;;;-0.60;87.40;;;;;;5068345;28;20281;-67
2023/04/05 05:25:46;;;;;;;0.77;0.77;;;-0.60;87.60;;;;;;5069189;28;20219;-67
2023/04/05 05:28:13;;;;;;;1.20;1.20;;;-0.60;88.30;;;;;;5067507;28;20977;-67
2023/04/05 05:30:41;;;;;;;1.95;1.67;;;-0.70;88.70;;;;;;5068241;28;20231;-67
2023/04/05 05:33:08;;;;;;;1.08;1.08;;;-0.60;90.00;;;;;;5069257;28;20658;-67
2023/04/05 05:35:36;;;;;;;0.55;0.55;;;-0.60;90.00;;;;;;5068142;28;20220;-67
2023/04/05 05:38:03;;;;;;;1.35;1.25;;;-0.60;89.50;;;;;;5067659;28;20202;-67
2023/04/05 05:40:30;;;;;;;0.82;0.68;;;-0.50;88.40;;;;;;5067112;28;20219;-67
2023/04/05 05:42:57;;;;;;;3.25;2.60;;;-0.40;87.40;;;;;;5068552;28;20191;-67
2023/04/05 05:45:24;;;;;;;0.82;0.75;;;-0.30;87.80;;;;;;5067765;28;20212;-67
2023/04/05 05:47:52;;;;;;;1.48;1.40;;;-0.30;87.80;;;;;;5069196;28;20268;-67
2023/04/05 05:50:19;;;;;;;1.65;1.20;;;-0.30;86.70;;;;;;5066063;28;20195;-67
2023/04/05 05:52:46;;;;;;;1.48;1.25;;;-0.30;87.40;;;;;;5069008;28;20563;-67
2023/04/05 05:55:13;;;;;;;0.77;0.77;;;-0.20;87.40;;;;;;5068739;28;20191;-67
2023/04/05 05:57:40;;;;;;;9.27;1.27;;;-0.20;86.30;;;;;;5068169;28;20200;-67
2023/04/05 06:00:09;;;;;;;3.17;2.15;;;-0.20;86.90;;;;;;5066277;28;20203;-68
2023/04/05 06:02:36;;;;;;;1.50;1.45;;;-0.10;86.70;;;;;;5068458;28;20696;-67
2023/04/05 06:05:05;;;;;;;1.25;1.15;;;0.00;86.50;;;;;;5067562;28;20214;-67
2023/04/05 06:07:36;;;;;;;1.73;1.50;;;0.10;87.00;;;;;;5068452;28;20246;-67
2023/04/05 06:10:03;;;;;;;1.15;0.90;;;0.20;87.40;;;;;;5065836;28;20990;-67
2023/04/05 06:12:30;;;;;;;1.35;1.10;;;0.20;87.20;;;;;;5066921;28;20187;-67
2023/04/05 06:14:57;;;;;;;1.20;1.00;;;0.20;86.70;;;;;;5063592;28;20199;-67
2023/04/05 06:17:24;;;;;;;2.28;2.00;;;0.20;86.80;;;;;;5064440;28;20219;-67
2023/04/05 06:19:51;;;;;;;1.08;1.02;;;0.20;86.80;;;;;;5064912;28;20222;-67
2023/04/05 06:22:19;;;;;;;1.98;1.83;;;0.40;86.20;;;;;;5063891;28;20226;-67
2023/04/05 06:24:46;;;;;;;1.33;1.23;;;0.40;86.40;;;;;;5067797;28;20195;-67
2023/04/05 06:27:13;;;;;;;11.63;1.80;;;0.50;86.50;;;;;;5065390;28;20223;-67
2023/04/05 06:29:40;;;;;;;1.30;1.20;;;0.60;86.50;;;;;;5065246;28;20188;-67
2023/04/05 06:32:07;;;;;;;1.33;1.23;;;0.70;86.70;;;;;;5065088;28;20295;-67
2023/04/05 06:34:37;;;;;;;4.28;1.83;;;0.80;85.60;;;;;;5066953;28;20195;-69
2023/04/05 06:37:05;;;;;;;4.00;2.17;;;0.90;84.60;;;;;;5065303;28;20622;-68
2023/04/05 06:39:33;;;;;;;3.80;3.50;;;1.10;83.70;;;;;;5065307;28;20201;-67
2023/04/05 06:42:00;;;;;;;1.73;1.63;;;1.20;82.00;;;;;;5064284;28;20219;-68
2023/04/05 06:44:27;;;;;;;4.65;1.98;;;1.40;81.40;;;;;;5066185;28;20191;-68
2023/04/05 06:46:57;;;;;;;2.17;1.98;;;1.60;81.00;;;;;;5066170;28;20319;-69
2023/04/05 06:49:24;;;;;;;2.50;1.70;;;1.70;80.20;;;;;;5064400;28;20253;-68
2023/04/05 06:51:51;;;;;;;2.50;2.10;;;1.80;78.70;;;;;;5066590;28;20222;-67
2023/04/05 06:54:20;;;;;;;2.47;2.28;;;2.00;77.60;;;;;;5064187;28;20278;-67
2023/04/05 06:56:48;;;;;;;1.90;1.80;;;2.00;76.60;;;;;;5064327;28;20219;-67
2023/04/05 06:59:15;;;;;;;2.00;1.85;;;2.00;77.40;;;;;;5066822;28;20689;-67
2023/04/05 07:01:42;;;;;;;1.00;1.00;;;2.30;76.20;;;;;;5066532;28;20235;-68
2023/04/05 07:04:08;;;;;;;2.75;2.47;;;2.50;73.70;;;;;;5067106;28;20688;-67
2023/04/05 07:06:37;;;;;;;3.45;3.25;;;2.70;73.20;;;;;;5067433;28;20312;-68
2023/04/05 07:09:04;;;;;;;2.55;2.15;;;2.80;72.20;;;;;;5067001;28;20199;-67
2023/04/05 07:11:31;;;;;;;1.52;1.30;;;2.90;72.40;;;;;;5067226;28;20231;-68
2023/04/05 07:14:00;;;;;;;1.67;1.58;;;2.90;71.10;;;;;;5067290;28;20715;-67
2023/04/05 07:16:27;;;;;;;1.35;1.30;;;3.00;71.50;;;;;;5067704;28;20255;-67
2023/04/05 07:18:56;;;;;;;5.95;3.10;;;3.20;70.70;;;;;;5060805;28;20207;-68
2023/04/05 07:21:23;;;;;;;4.82;3.05;;;3.30;71.00;;;;;;5064995;28;20215;-67
2023/04/05 07:23:52;;;;;;;1.20;1.20;;;3.50;69.00;;;;;;5067419;28;20246;-67
2023/04/05 07:26:19;;;;;;;6.60;3.03;;;3.20;67.90;;;;;;5065566;28;20227;-67
2023/04/05 07:28:46;;;;;;;7.13;3.88;;;3.30;68.80;;;;;;5066058;28;20300;-67
2023/04/05 07:31:16;;;;;;;1.88;1.77;;;3.50;68.80;;;;;;5065935;28;20230;-69
2023/04/05 07:33:43;;;;;;;4.70;1.92;;;3.70;69.40;;;;;;5066211;28;20191;-68
2023/04/05 07:36:10;;;;;;;3.40;2.85;;;3.80;68.20;;;;;;5063055;28;20219;-67
2023/04/05 07:38:36;;;;;;;5.22;2.75;;;4.00;65.80;;;;;;5065808;28;20192;-67
2023/04/05 07:41:03;;;;;;;6.18;4.18;;;4.10;65.50;;;;;;5066283;28;20226;-67
2023/04/05 07:43:30;;;;;;;4.90;4.50;;;4.20;65.10;;;;;;5063608;28;20195;-67
2023/04/05 07:46:01;;;;;;;6.18;1.85;;;4.20;64.00;;;;;;5066369;28;20223;-67
2023/04/05 07:48:30;;;;;;;3.05;2.85;;;4.30;63.70;;;;;;5066045;28;20226;-67
2023/04/05 07:50:57;;;;;;;12.88;5.45;;;4.40;64.40;;;;;;5066679;28;20364;-67
2023/04/05 07:53:24;;;;;;;5.35;3.50;;;4.60;64.30;;;;;;5066956;28;20629;-67
2023/04/05 07:55:52;;;;;;;24.67;2.30;;;4.70;63.00;;;;;;5066782;28;20292;-68
2023/04/05 07:58:19;;;;;;;6.00;3.50;;;4.70;62.80;;;;;;5066046;28;20728;-67
2023/04/05 08:00:46;;;;;;;3.15;2.65;;;4.80;61.20;;;;;;5066304;28;20214;-67
2023/04/05 08:03:12;;;;;;;7.32;4.03;;;4.90;62.00;;;;;;5062125;28;20637;-67
2023/04/05 08:05:41;;;;;;;4.40;3.75;;;4.70;62.30;;;;;;5065687;28;20652;-67
2023/04/05 08:08:09;;;;;;;5.72;3.47;;;4.70;62.60;;;;;;5069289;28;20302;-67
2023/04/05 08:10:38;;;;;;;2.78;2.58;;;4.80;61.50;;;;;;5065850;28;20226;-67
2023/04/05 08:13:05;;;;;;;2.65;2.45;;;4.90;60.70;;;;;;5065630;28;20199;-68
2023/04/05 08:15:33;;;;;;;3.80;2.80;;;4.80;61.50;;;;;;5066183;28;20227;-67
2023/04/05 08:17:59;;;;;;;5.45;4.05;;;5.00;60.50;;;;;;5059859;28;20214;-68
2023/04/05 08:20:26;;;;;;;46.95;4.25;;;5.10;60.00;;;;;;5065501;28;20226;-67
2023/04/05 08:22:55;;;;;;;2.85;2.65;;;5.40;59.50;;;;;;5066139;28;20252;-67
2023/04/05 08:25:21;;;;;;;6.15;4.53;;;5.40;59.90;;;;;;5066559;28;20204;-67
2023/04/05 08:27:48;;;;;;;3.60;2.97;;;5.50;60.10;;;;;;5066352;28;20286;-67
2023/04/05 08:30:18;;;;;;;2.50;2.30;;;5.70;60.40;;;;;;5064258;28;20680;-69
2023/04/05 08:32:46;;;;;;;3.53;2.65;;;5.80;57.80;;;;;;5066125;28;20191;-68
2023/04/05 08:35:12;;;;;;;1.98;1.60;;;5.90;56.30;;;;;;5074868;28;20586;-67
2023/04/05 08:37:39;;;;;;;1.95;1.75;;;5.80;57.20;;;;;;5066614;28;20199;-67
2023/04/05 08:40:08;;;;;;;2.65;2.10;;;5.90;57.30;;;;;;5066077;28;20227;-68
2023/04/05 08:42:41;;;;;;;5.13;3.38;;;5.80;57.90;;;;;;5065771;28;20226;-67
2023/04/05 08:45:14;;;;;;;3.45;3.25;;;6.00;56.30;;;;;;5064508;28;20283;-67
2023/04/05 08:47:42;;;;;;;2.65;2.45;;;6.00;55.70;;;;;;5065691;28;20220;-68
2023/04/05 08:50:12;;;;;;;2.17;1.75;;;6.20;53.90;;;;;;5061634;28;20204;-68
2023/04/05 08:52:41;;;;;;;2.75;2.50;;;6.40;54.60;;;;;;5068808;28;20638;-67
2023/04/05 08:55:10;;;;;;;5.22;2.85;;;6.60;54.70;;;;;;5064761;28;21977;-68
2023/04/05 08:57:41;;;;;;;3.45;2.85;;;6.50;54.80;;;;;;5064249;28;20199;-69
2023/04/05 09:00:11;;;;;;;3.80;3.45;;;6.60;54.30;;;;;;5064241;28;20199;-69
2023/04/05 09:02:38;;;;;;;4.13;3.15;;;6.60;54.60;;;;;;5065347;28;20219;-68
2023/04/05 09:05:10;;;;;;;2.60;2.17;;;6.60;54.20;;;;;;5065418;28;20219;-68
2023/04/05 09:07:38;;;;;;;2.42;2.22;;;6.60;55.00;;;;;;5065830;28;20223;-67
2023/04/05 09:10:07;;;;;;;3.45;2.90;;;6.60;54.60;;;;;;5064718;28;20203;-68
2023/04/05 09:12:37;;;;;;;5.10;2.30;;;6.80;54.10;;;;;;5067656;28;20204;-67
2023/04/05 09:15:05;;;;;;;5.20;3.78;;;6.70;54.60;;;;;;5069073;28;20219;-68
2023/04/05 09:17:33;;;;;;;2.55;2.30;;;6.80;53.70;;;;;;5066687;28;20212;-68
2023/04/05 09:20:00;;;;;;;3.40;3.05;;;7.00;52.70;;;;;;5068419;28;20203;-68
2023/04/05 09:22:27;;;;;;;3.40;3.15;;;6.90;52.30;;;;;;5068497;28;20219;-69
2023/04/05 09:24:55;;;;;;;4.20;2.85;;;6.80;53.20;;;;;;5068715;28;20571;-69
2023/04/05 09:27:22;;;;;;;4.55;2.60;;;6.80;52.60;;;;;;5068531;28;20247;-69
2023/04/05 09:29:50;;;;;;;3.88;3.15;;;7.00;52.70;;;;;;5068216;28;20195;-68
2023/04/05 09:32:19;;;;;;;2.38;2.17;;;7.20;51.60;;;;;;5068416;28;20325;-69
2023/04/05 09:34:47;;;;;;;4.55;3.58;;;7.20;51.40;;;;;;5068867;28;20195;-68
2023/04/05 09:37:19;;;;;;;3.00;2.53;;;7.40;51.30;;;;;;5068167;28;20219;-70
2023/04/05 09:39:48;;;;;;;2.65;2.45;;;7.30;51.80;;;;;;5068174;28;20280;-68
2023/04/05 09:42:16;;;;;;;2.67;2.47;;;7.40;51.70;;;;;;5068070;28;20584;-68
2023/04/05 09:45:01;;;;;;;2.28;2.17;;;7.40;51.70;;;;;;5069073;28;20234;-69
2023/04/05 09:47:33;;;;;;;2.17;2.00;;;7.40;52.00;;;;;;5066497;28;20222;-69
2023/04/05 09:50:01;;;;;;;3.15;2.08;;;6.90;50.00;;;;;;5065379;28;20194;-68
2023/04/05 09:52:30;;;;;;;4.40;4.00;;;6.60;50.10;;;;;;5067945;28;20776;-67
2023/04/05 09:54:59;;;;;;;2.70;2.45;;;6.90;51.20;;;;;;5065038;28;20220;-68
2023/04/05 09:57:28;;;;;;;3.72;2.15;;;7.30;51.70;;;;;;5066972;28;20574;-68
2023/04/05 09:59:56;;;;;;;3.70;2.40;;;7.40;51.30;;;;;;5062496;28;20195;-68
2023/04/05 10:02:23;;;;;;;4.25;3.85;;;7.50;50.80;;;;;;5070392;28;20735;-68
2023/04/05 10:04:50;;;;;;;6.82;3.38;;;7.70;50.90;;;;;;5076800;28;20219;-68
2023/04/05 10:07:18;;;;;;;2.90;2.70;;;7.60;50.00;;;;;;5068556;28;20864;-68
2023/04/05 10:09:47;;;;;;;4.53;2.90;;;7.60;49.60;;;;;;5067551;28;20192;-68
2023/04/05 10:12:21;;;;;;;3.23;2.53;;;7.60;51.30;;;;;;5068416;28;20224;-68
2023/04/05 10:14:48;;;;;;;4.47;3.50;;;7.80;50.10;;;;;;5068010;28;20632;-68
2023/04/05 10:17:24;;;;;;;18.93;3.43;;;7.70;49.00;;;;;;5067515;28;20653;-69
2023/04/05 10:20:03;;;;;;;3.95;3.47;;;7.60;49.50;;;;;;5065086;28;20703;-68
2023/04/05 10:22:36;;;;;;;5.43;3.33;;;7.60;50.70;;;;;;5068918;28;20206;-68
2023/04/05 10:25:08;;;;;;;3.08;2.72;;;7.30;50.30;;;;;;5068665;28;20641;-69
2023/04/05 10:27:47;;;;;;;2.40;1.88;;;7.30;50.90;;;;;;5065837;28;20207;-70
2023/04/05 10:30:16;;;;;;;2.85;2.65;;;7.50;50.90;;;;;;5080294;28;20206;-68
2023/04/05 10:33:03;;;;;;;2.55;1.92;;;7.40;50.00;;;;;;5060656;28;20814;-67
2023/04/05 10:35:35;;;;;;;3.57;3.27;;;7.20;50.30;;;;;;5066701;28;20229;-68
2023/04/05 10:38:12;;;;;;;5.18;3.42;;;7.10;50.60;;;;;;5076409;28;20629;-68
2023/04/05 10:40:43;;;;;;;4.53;2.90;;;7.60;50.30;;;;;;5065882;28;20294;-68
2023/04/05 10:43:17;;;;;;;6.32;4.20;;;7.80;50.90;;;;;;5067405;28;20207;-67
2023/04/05 10:45:46;;;;;;;3.22;2.92;;;8.00;52.00;;;;;;5067420;28;20870;-68
2023/04/05 10:48:25;;;;;;;3.47;3.23;;;8.20;51.40;;;;;;5065329;28;20227;-68
2023/04/05 10:50:52;;;;;;;3.63;3.33;;;8.20;50.10;;;;;;5062215;28;20656;-67
2023/04/05 10:53:22;;;;;;;6.43;3.30;;;8.50;50.20;;;;;;5062519;28;21002;-68
2023/04/05 10:55:51;;;;;;;2.40;2.30;;;8.70;50.10;;;;;;5069413;28;20650;-71
2023/04/05 10:58:20;;;;;;;3.47;2.40;;;8.60;49.70;;;;;;5060903;28;21362;-70
2023/04/05 11:00:50;;;;;;;4.23;3.00;;;8.80;51.10;;;;;;5063110;28;20650;-71
2023/04/05 11:03:47;;;;;;;2.83;2.63;;;8.90;49.70;;;;;;5073003;28;20748;-69
2023/04/05 11:06:22;;;;;;;3.90;3.20;;;9.00;49.80;;;;;;5061950;28;20652;-71
2023/04/05 11:08:52;;;;;;;3.93;3.40;;;9.00;49.30;;;;;;5068169;28;20675;-69
2023/04/05 11:11:21;;;;;;;3.97;3.43;;;9.10;49.70;;;;;;5068854;28;20654;-69
2023/04/05 11:13:49;;;;;;;3.57;2.97;;;8.80;48.20;;;;;;5065867;28;21027;-69
2023/04/05 11:16:16;;;;;;;4.10;3.10;;;9.10;48.90;;;;;;5064112;28;20748;-69
2023/04/05 11:18:46;;;;;;;3.73;2.63;;;9.20;48.90;;;;;;5063862;28;20626;-69
2023/04/05 11:21:21;;;;;;;3.30;2.30;;;9.30;48.90;;;;;;5065436;28;20928;-70
2023/04/05 11:24:06;;;;;;;4.80;3.20;;;9.40;48.50;;;;;;5067134;28;20620;-69
2023/04/05 11:26:56;;;;;;;2.87;2.60;;;9.50;48.70;;;;;;5071331;28;20658;-68
2023/04/05 11:29:57;;;;;;;3.03;2.73;;;9.50;48.70;;;;;;5064823;28;20759;-68
2023/04/05 11:32:24;;;;;;;3.47;2.30;;;9.40;47.90;;;;;;5062856;28;21351;-69
2023/04/05 11:35:04;;;;;;;3.97;3.67;;;9.70;48.70;;;;;;5068375;28;20713;-69
2023/04/05 11:38:08;;;;;;;3.50;2.53;;;10.10;46.60;;;;;;5068099;28;20721;-70
2023/04/05 11:40:39;;;;;;;3.57;3.27;;;10.30;46.50;;;;;;5015162;28;20707;-69
2023/04/05 11:43:09;;;;;;;4.50;2.80;;;10.40;46.90;;;;;;5057465;28;21282;-69
2023/04/05 11:45:40;;;;;;;3.90;3.03;;;10.50;46.10;;;;;;5064247;28;20706;-70
2023/04/05 11:48:09;;;;;;;5.50;3.30;;;10.70;45.00;;;;;;5065871;28;20843;-69
2023/04/05 11:50:36;;;;;;;5.60;3.60;;;10.80;44.90;;;;;;5061415;28;20748;-70
2023/04/05 11:53:15;;;;;;;3.60;2.90;;;10.50;45.40;;;;;;5068824;28;20643;-69
2023/04/05 11:55:43;;;;;;;4.07;3.27;;;10.50;45.10;;;;;;5065251;28;20771;-69
2023/04/05 11:58:14;;;;;;;3.93;2.83;;;10.30;45.10;;;;;;5076424;28;20639;-69
2023/04/05 12:00:41;;;;;;;3.10;2.80;;;10.30;46.60;;;;;;5069512;28;21087;-68
2023/04/05 12:03:11;;;;;;;4.27;3.20;;;10.40;45.40;;;;;;5073261;28;20641;-68
2023/04/05 12:05:48;;;;;;;3.83;3.20;;;10.40;45.30;;;;;;5065736;28;20758;-68
2023/04/05 12:08:17;;;;;;;4.10;3.00;;;9.80;45.50;;;;;;5067806;28;20663;-68
2023/04/05 12:10:44;;;;;;;4.00;3.13;;;9.60;46.50;;;;;;5072610;28;20816;-68
2023/04/05 12:13:11;;;;;;;3.03;2.70;;;9.80;46.70;;;;;;5066376;28;20627;-68
2023/04/05 12:15:39;;;;;;;3.73;3.23;;;9.60;46.40;;;;;;5066260;28;20647;-69
2023/04/05 12:18:13;;;;;;;2.97;2.40;;;9.70;47.10;;;;;;5058537;28;20639;-68
2023/04/05 12:20:40;;;;;;;2.77;2.57;;;9.70;47.00;;;;;;5050495;28;20723;-68
2023/04/05 12:23:07;;;;;;;3.77;3.47;;;9.60;47.30;;;;;;5066555;28;20675;-68
2023/04/05 12:25:37;;;;;;;2.97;2.77;;;9.60;46.80;;;;;;5066036;28;20652;-68
2023/04/05 12:28:05;;;;;;;3.80;3.43;;;9.70;47.60;;;;;;5065841;28;20611;-68
2023/04/05 12:30:36;;;;;;;3.40;2.97;;;9.70;46.90;;;;;;5066023;28;20657;-69
2023/04/05 12:33:08;;;;;;;3.87;2.80;;;9.70;47.40;;;;;;5046946;28;20638;-68
2023/04/05 12:35:35;;;;;;;5.53;3.50;;;9.70;46.70;;;;;;5057639;28;20683;-68
2023/04/05 12:38:04;;;;;;;3.07;2.17;;;9.60;46.40;;;;;;5066460;28;20629;-68
2023/04/05 12:40:32;;;;;;;4.80;3.90;;;9.60;47.50;;;;;;5065940;28;20773;-69
2023/04/05 12:43:03;;;;;;;3.33;3.03;;;9.60;47.40;;;;;;5066327;28;20709;-68
2023/04/05 12:45:38;;;;;;;7.30;3.80;;;9.70;48.00;;;;;;5064564;28;20657;-68
2023/04/05 12:48:09;;;;;;;3.90;3.50;;;9.70;47.90;;;;;;5080945;28;20713;-69
2023/04/05 12:50:36;;;;;;;3.60;3.20;;;9.80;47.80;;;;;;5066068;28;20657;-69
2023/04/05 12:53:06;;;;;;;2.97;2.70;;;9.90;47.20;;;;;;5068977;28;20633;-71
2023/04/05 12:55:42;;;;;;;4.33;3.47;;;10.00;46.20;;;;;;5073626;28;21248;-70
2023/04/05 12:58:12;;;;;;;4.17;3.77;;;9.90;46.90;;;;;;5065384;28;20650;-70
2023/04/05 13:00:39;;;;;;;4.27;3.97;;;10.10;46.90;;;;;;5067931;28;20662;-69
2023/04/05 13:03:06;;;;;;;6.80;3.50;;;10.00;46.50;;;;;;5071335;28;20670;-70
2023/04/05 13:05:33;;;;;;;3.53;3.00;;;10.10;46.30;;;;;;5069236;28;20700;-70